createdAt,value
2018-09-28T00:00:11.403Z,2.17
2018-09-28T00:02:38.449Z,2.10
2018-09-28T00:05:05.600Z,2.07
2018-09-28T00:07:32.826Z,2.40
2018-09-28T00:09:59.901Z,2.10
2018-09-28T00:12:26.951Z,1.83
2018-09-28T00:14:54.003Z,2.27
2018-09-28T00:17:21.048Z,2.00
2018-09-28T00:20:04.979Z,1.90
2018-09-28T00:22:50.643Z,1.97
2018-09-28T00:25:20.353Z,2.10
2018-09-28T00:27:47.437Z,2.10
2018-09-28T00:30:14.485Z,2.10
2018-09-28T00:32:41.540Z,2.00
2018-09-28T00:35:08.622Z,2.10
2018-09-28T00:37:36.249Z,2.27
2018-09-28T00:40:03.331Z,2.20
2018-09-28T00:45:03.065Z,1.80
2018-09-28T00:47:30.116Z,1.80
2018-09-28T00:49:57.130Z,1.87
2018-09-28T00:52:24.205Z,1.90
2018-09-28T00:54:51.259Z,1.90
2018-09-28T00:57:18.302Z,2.00
2018-09-28T00:59:45.322Z,2.20
2018-09-28T01:02:12.403Z,2.10
2018-09-28T01:04:39.447Z,2.03
2018-09-28T01:07:07.214Z,2.13
2018-09-28T01:09:34.778Z,1.87
2018-09-28T01:12:02.335Z,2.20
2018-09-28T01:14:29.389Z,1.80
2018-09-28T01:16:57.018Z,1.77
2018-09-28T01:19:23.998Z,1.80
2018-09-28T01:21:51.039Z,1.90
2018-09-28T01:24:18.090Z,2.10
2018-09-28T01:26:45.143Z,1.93
2018-09-28T01:29:12.187Z,2.00
2018-09-28T01:31:39.235Z,2.10
2018-09-28T01:34:06.311Z,1.77
2018-09-28T01:36:33.843Z,2.30
2018-09-28T01:39:00.897Z,1.80
2018-09-28T01:41:27.943Z,2.03
2018-09-28T01:43:54.989Z,2.07
2018-09-28T01:46:22.043Z,2.30
2018-09-28T01:48:49.195Z,1.77
2018-09-28T01:51:16.238Z,1.93
2018-09-28T01:53:43.285Z,1.97
2018-09-28T01:56:10.341Z,2.23
2018-09-28T01:58:37.383Z,2.17
2018-09-28T02:01:04.533Z,2.30
2018-09-28T02:03:31.686Z,1.80
2018-09-28T02:05:58.738Z,1.80
2018-09-28T02:08:25.787Z,2.10
2018-09-28T02:10:53.246Z,1.90
2018-09-28T02:13:20.396Z,2.23
2018-09-28T02:15:47.534Z,2.00
2018-09-28T02:18:14.591Z,1.90
2018-09-28T02:20:41.639Z,2.50
2018-09-28T02:23:08.693Z,1.90
2018-09-28T02:25:35.736Z,1.80
2018-09-28T02:28:02.789Z,2.17
2018-09-28T02:30:29.840Z,2.00
2018-09-28T02:32:56.882Z,2.00
2018-09-28T02:35:23.930Z,1.90
2018-09-28T02:37:51.787Z,1.97
2018-09-28T02:40:18.850Z,1.60
2018-09-28T02:43:05.257Z,1.80
2018-09-28T02:45:32.298Z,1.70
2018-09-28T02:47:59.346Z,1.60
2018-09-28T02:50:26.421Z,1.57
2018-09-28T02:52:53.552Z,1.67
2018-09-28T02:55:22.438Z,1.70
2018-09-28T02:57:49.588Z,1.83
2018-09-28T03:00:17.558Z,1.67
2018-09-28T03:02:44.815Z,1.73
2018-09-28T03:05:11.861Z,1.60
2018-09-28T03:07:38.917Z,1.70
2018-09-28T03:10:06.779Z,1.77
2018-09-28T03:12:33.831Z,1.60
2018-09-28T03:15:00.875Z,1.83
2018-09-28T03:17:28.538Z,1.63
2018-09-28T03:19:55.591Z,1.47
2018-09-28T03:22:22.634Z,1.77
2018-09-28T03:24:49.683Z,1.63
2018-09-28T03:27:17.459Z,1.90
2018-09-28T03:29:44.504Z,1.40
2018-09-28T03:32:11.552Z,1.70
2018-09-28T03:34:38.596Z,1.50
2018-09-28T03:37:11.688Z,1.60
2018-09-28T03:39:38.738Z,1.83
2018-09-28T03:42:05.788Z,1.60
2018-09-28T03:44:32.802Z,1.63
2018-09-28T03:47:00.903Z,1.60
2018-09-28T03:49:28.360Z,1.50
2018-09-28T03:51:55.512Z,1.57
2018-09-28T03:54:22.559Z,1.80
2018-09-28T03:56:49.614Z,1.77
2018-09-28T03:59:16.657Z,2.13
2018-09-28T04:01:43.708Z,1.70
2018-09-28T04:04:10.666Z,1.80
2018-09-28T04:06:38.110Z,1.90
2018-09-28T04:09:05.159Z,1.90
2018-09-28T04:11:32.212Z,2.07
2018-09-28T04:13:59.460Z,1.57
2018-09-28T04:16:26.480Z,1.90
2018-09-28T04:18:53.666Z,1.90
2018-09-28T04:21:21.228Z,2.33
2018-09-28T04:24:07.035Z,2.50
2018-09-28T04:26:34.167Z,2.10
2018-09-28T04:29:01.625Z,2.07
2018-09-28T04:31:28.668Z,2.00
2018-09-28T04:33:55.715Z,2.30
2018-09-28T04:36:22.769Z,2.37
2018-09-28T04:38:49.811Z,2.80
2018-09-28T04:41:16.860Z,2.30
2018-09-28T04:43:44.005Z,2.40
2018-09-28T04:46:11.067Z,2.30
2018-09-28T04:48:38.108Z,2.60
2018-09-28T04:51:05.157Z,2.20
2018-09-28T04:53:32.211Z,2.60
2018-09-28T04:55:59.254Z,2.60
2018-09-28T04:58:26.304Z,2.40
2018-09-28T05:00:53.357Z,2.63
2018-09-28T05:03:20.414Z,2.70
2018-09-28T05:05:47.448Z,2.50
2018-09-28T05:08:14.506Z,2.30
2018-09-28T05:10:41.546Z,2.10
2018-09-28T05:13:08.620Z,2.50
2018-09-28T05:15:35.648Z,2.60
2018-09-28T05:18:02.693Z,2.30
2018-09-28T05:20:30.066Z,2.30
2018-09-28T05:22:57.184Z,2.40
2018-09-28T05:25:24.231Z,2.50
2018-09-28T05:27:51.402Z,2.33
2018-09-28T05:30:18.553Z,2.10
2018-09-28T05:32:45.689Z,2.40
2018-09-28T05:35:12.646Z,2.40
2018-09-28T05:37:39.698Z,3.13
2018-09-28T05:40:07.666Z,3.43
2018-09-28T05:42:56.317Z,4.07
2018-09-28T05:45:23.470Z,4.20
2018-09-28T05:47:50.521Z,3.20
2018-09-28T05:50:17.577Z,2.97
2018-09-28T05:52:44.614Z,2.30
2018-09-28T05:55:11.767Z,3.00
2018-09-28T05:57:39.226Z,2.60
2018-09-28T06:00:22.459Z,3.17
2018-09-28T06:03:19.216Z,3.80
2018-09-28T06:05:46.515Z,3.13
2018-09-28T06:08:13.553Z,3.23
2018-09-28T06:10:40.554Z,2.87
2018-09-28T06:13:07.704Z,3.17
2018-09-28T06:15:34.859Z,3.17
2018-09-28T06:18:01.935Z,2.70
2018-09-28T06:20:28.947Z,3.10
2018-09-28T06:22:56.001Z,2.97
2018-09-28T06:25:23.059Z,2.90
2018-09-28T06:27:50.308Z,2.50
2018-09-28T06:30:17.361Z,2.60
2018-09-28T06:32:44.397Z,2.33
2018-09-28T06:35:11.450Z,2.20
2018-09-28T06:37:38.493Z,2.40
2018-09-28T06:40:05.541Z,2.67
2018-09-28T06:42:32.715Z,2.33
2018-09-28T06:44:59.745Z,2.40
2018-09-28T06:47:26.762Z,1.97
2018-09-28T06:49:53.837Z,2.00
2018-09-28T06:52:39.311Z,2.43
2018-09-28T06:55:22.690Z,2.07
2018-09-28T06:57:50.520Z,2.27
2018-09-28T07:00:17.610Z,2.10
2018-09-28T07:02:44.613Z,2.00
2018-09-28T07:05:11.666Z,1.60
2018-09-28T07:07:38.710Z,1.80
2018-09-28T07:10:05.758Z,2.10
2018-09-28T07:12:32.811Z,10.87
2018-09-28T07:14:59.856Z,1.67
2018-09-28T07:17:27.116Z,5.20
2018-09-28T07:19:55.051Z,2.57
2018-09-28T07:22:42.439Z,3.67
2018-09-28T07:25:30.615Z,3.20
2018-09-28T07:27:57.805Z,3.20
2018-09-28T07:30:24.952Z,2.03
2018-09-28T07:32:52.107Z,1.70
2018-09-28T07:35:19.257Z,1.73
2018-09-28T07:37:48.452Z,1.60
2018-09-28T07:40:15.500Z,1.80
2018-09-28T07:42:43.573Z,1.33
2018-09-28T07:45:10.628Z,1.63
2018-09-28T07:47:38.615Z,1.83
2018-09-28T07:50:05.856Z,1.93
2018-09-28T07:52:32.894Z,1.50
2018-09-28T07:55:00.155Z,1.83
2018-09-28T07:57:27.196Z,1.70
2018-09-28T07:59:54.653Z,1.50
2018-09-28T08:02:21.804Z,2.17
2018-09-28T08:04:49.371Z,1.60
2018-09-28T08:07:17.336Z,1.70
2018-09-28T08:09:44.386Z,1.70
2018-09-28T08:12:11.438Z,1.97
2018-09-28T08:14:38.482Z,2.00
2018-09-28T08:17:05.531Z,1.90
2018-09-28T08:19:32.692Z,1.93
2018-09-28T08:21:59.735Z,1.53
2018-09-28T08:24:26.756Z,1.70
2018-09-28T08:26:53.826Z,1.50
2018-09-28T08:29:21.902Z,1.55
2018-09-28T08:31:48.954Z,1.83
2018-09-28T08:34:15.969Z,1.80
2018-09-28T08:36:43.087Z,1.90
2018-09-28T08:39:28.022Z,2.10
2018-09-28T08:41:55.338Z,2.20
2018-09-28T08:44:22.726Z,1.75
2018-09-28T08:46:49.777Z,2.20
2018-09-28T08:49:16.882Z,1.73
2018-09-28T08:51:44.076Z,1.60
2018-09-28T08:54:12.548Z,1.85
2018-09-28T08:56:39.570Z,2.05
2018-09-28T08:59:06.681Z,1.55
2018-09-28T09:01:33.705Z,1.85
2018-09-28T09:04:00.831Z,2.40
2018-09-28T09:06:33.238Z,1.67
2018-09-28T09:09:00.276Z,2.03
2018-09-28T09:11:27.639Z,2.00
2018-09-28T09:13:54.650Z,2.10
2018-09-28T09:16:21.733Z,2.15
2018-09-28T09:18:48.788Z,1.80
2018-09-28T09:21:15.995Z,1.98
2018-09-28T09:23:44.731Z,1.80
2018-09-28T09:26:11.976Z,1.80
2018-09-28T09:28:39.026Z,1.52
2018-09-28T09:31:07.309Z,2.25
2018-09-28T09:33:34.457Z,2.00
2018-09-28T09:36:03.035Z,1.65
2018-09-28T09:38:30.090Z,1.92
2018-09-28T09:40:57.849Z,2.62
2018-09-28T09:43:25.102Z,1.90
2018-09-28T09:45:52.255Z,2.00
2018-09-28T09:48:19.282Z,1.65
2018-09-28T09:50:47.584Z,1.60
2018-09-28T09:53:15.044Z,1.70
2018-09-28T09:55:42.086Z,1.70
2018-09-28T09:58:09.615Z,2.62
2018-09-28T10:00:36.695Z,1.80
2018-09-28T10:03:03.814Z,1.80
2018-09-28T10:05:32.641Z,1.75
2018-09-28T10:08:23.892Z,1.73
2018-09-28T10:10:51.105Z,1.95
2018-09-28T10:13:18.152Z,2.00
2018-09-28T10:16:04.907Z,1.90
2018-09-28T10:18:32.116Z,2.05
2018-09-28T10:20:59.372Z,2.22
2018-09-28T10:23:27.244Z,2.03
2018-09-28T10:25:54.798Z,1.98
2018-09-28T10:28:21.888Z,2.53
2018-09-28T10:30:49.005Z,2.10
2018-09-28T10:33:16.048Z,1.80
2018-09-28T10:35:43.094Z,2.03
2018-09-28T10:38:10.149Z,1.70
2018-09-28T10:40:37.326Z,1.67
2018-09-28T10:43:04.343Z,1.90
2018-09-28T10:45:31.504Z,1.70
2018-09-28T10:47:58.545Z,2.12
2018-09-28T10:50:25.695Z,1.87
2018-09-28T10:52:52.999Z,1.50
2018-09-28T10:55:19.995Z,1.70
2018-09-28T10:57:47.051Z,1.58
2018-09-28T11:00:14.229Z,1.60
2018-09-28T11:02:41.356Z,1.75
2018-09-28T11:05:08.395Z,1.50
2018-09-28T11:07:35.548Z,1.40
2018-09-28T11:10:02.699Z,1.75
2018-09-28T11:12:29.856Z,1.50
2018-09-28T11:14:57.108Z,1.60
2018-09-28T11:17:24.151Z,1.70
2018-09-28T11:19:51.200Z,1.62
2018-09-28T11:22:18.252Z,1.83
2018-09-28T11:24:46.984Z,1.50
2018-09-28T11:27:14.106Z,1.80
2018-09-28T11:29:41.314Z,1.60
2018-09-28T11:32:08.366Z,1.85
2018-09-28T11:34:37.399Z,1.50
2018-09-28T11:37:04.409Z,1.83
2018-09-28T11:39:33.849Z,1.60
2018-09-28T11:42:00.959Z,1.85
2018-09-28T11:44:28.211Z,1.80
2018-09-28T11:46:56.556Z,1.52
2018-09-28T11:49:23.946Z,1.58
2018-09-28T11:51:54.580Z,1.60
2018-09-28T11:54:21.732Z,1.65
2018-09-28T11:56:48.990Z,1.58
2018-09-28T11:59:16.034Z,1.80
2018-09-28T12:01:43.081Z,1.60
2018-09-28T12:04:10.235Z,1.40
2018-09-28T12:06:37.515Z,1.60
2018-09-28T12:09:04.607Z,1.70
2018-09-28T12:11:31.897Z,1.83
2018-09-28T12:14:00.571Z,1.37
2018-09-28T12:16:27.906Z,2.00
2018-09-28T12:18:54.981Z,1.30
2018-09-28T12:21:22.153Z,1.62
2018-09-28T12:23:49.803Z,1.80
2018-09-28T12:26:17.259Z,1.40
2018-09-28T12:28:46.824Z,1.62
2018-09-28T12:31:14.079Z,1.50
2018-09-28T12:33:41.218Z,1.60
2018-09-28T12:36:10.162Z,1.50
2018-09-28T12:38:37.314Z,1.67
2018-09-28T12:41:04.359Z,1.60
2018-09-28T12:43:35.033Z,1.50
2018-09-28T12:45:59.275Z,1.87
2018-09-28T12:48:26.555Z,1.35
2018-09-28T12:50:53.949Z,1.90
2018-09-28T12:53:21.209Z,1.80
2018-09-28T12:55:49.619Z,1.50
2018-09-28T12:58:16.845Z,1.40
2018-09-28T13:00:44.962Z,1.50
2018-09-28T13:03:12.204Z,1.45
2018-09-28T13:05:39.248Z,1.52
2018-09-28T13:08:06.401Z,1.95
2018-09-28T13:10:35.289Z,2.42
2018-09-28T13:13:02.346Z,1.62
2018-09-28T13:15:29.900Z,1.45
2018-09-28T13:17:57.460Z,1.62
2018-09-28T13:20:25.002Z,1.40
2018-09-28T13:22:53.680Z,1.45
2018-09-28T13:25:20.828Z,1.58
2018-09-28T13:27:47.908Z,1.95
2018-09-28T13:30:15.847Z,1.40
2018-09-28T13:32:42.978Z,1.62
2018-09-28T13:35:09.974Z,1.70
2018-09-28T13:37:37.128Z,1.40
2018-09-28T13:40:04.276Z,1.60
2018-09-28T13:42:31.441Z,1.40
2018-09-28T13:44:58.801Z,1.50
2018-09-28T13:47:26.143Z,1.25
2018-09-28T13:49:53.393Z,1.50
2018-09-28T13:52:21.662Z,1.58
2018-09-28T13:54:48.885Z,1.62
2018-09-28T13:57:15.873Z,1.75
2018-09-28T13:59:42.917Z,1.48
2018-09-28T14:02:10.120Z,1.67
2018-09-28T14:04:37.333Z,1.85
2018-09-28T14:07:04.420Z,1.65
2018-09-28T14:09:31.732Z,1.60
2018-09-28T14:12:19.282Z,1.70
2018-09-28T14:15:07.044Z,1.42
2018-09-28T14:17:34.355Z,1.70
2018-09-28T14:20:01.397Z,1.50
2018-09-28T14:22:28.868Z,1.50
2018-09-28T14:24:55.903Z,1.50
2018-09-28T14:27:22.959Z,1.42
2018-09-28T14:29:50.304Z,2.10
2018-09-28T14:32:18.257Z,1.40
2018-09-28T14:34:45.693Z,1.60
2018-09-28T14:37:13.271Z,1.50
2018-09-28T14:39:40.444Z,1.60
2018-09-28T14:42:08.097Z,1.67
2018-09-28T14:44:35.190Z,1.60
2018-09-28T14:47:02.315Z,1.90
2018-09-28T14:49:29.663Z,1.70
2018-09-28T14:52:01.038Z,1.50
2018-09-28T14:54:28.094Z,1.50
2018-09-28T14:56:55.110Z,1.50
2018-09-28T14:59:22.157Z,1.60
2018-09-28T15:01:49.212Z,1.37
2018-09-28T15:04:16.333Z,3.92
2018-09-28T15:06:43.571Z,2.03
2018-09-28T15:09:11.586Z,1.60
2018-09-28T15:11:38.737Z,1.50
2018-09-28T15:14:07.460Z,1.85
2018-09-28T15:16:34.800Z,1.75
2018-09-28T15:19:02.651Z,1.60
2018-09-28T15:21:30.305Z,2.25
2018-09-28T15:24:17.879Z,1.65
2018-09-28T15:26:45.087Z,1.40
2018-09-28T15:29:12.141Z,1.90
2018-09-28T15:31:39.389Z,2.03
2018-09-28T15:34:06.541Z,1.98
2018-09-28T15:36:33.762Z,1.80
2018-09-28T15:39:00.746Z,1.65
2018-09-28T15:41:27.995Z,1.50
2018-09-28T15:43:55.047Z,1.48
2018-09-28T15:46:22.092Z,1.80
2018-09-28T15:48:50.030Z,1.60
2018-09-28T15:51:17.115Z,1.50
2018-09-28T15:54:05.696Z,1.60
2018-09-28T15:56:33.259Z,1.30
2018-09-28T15:59:00.484Z,1.55
2018-09-28T16:01:30.510Z,1.40
2018-09-28T16:03:58.061Z,2.15
2018-09-28T16:06:25.825Z,2.85
2018-09-28T16:08:53.074Z,2.42
2018-09-28T16:11:23.958Z,1.90
2018-09-28T16:13:51.164Z,1.90
2018-09-28T16:16:18.899Z,2.10
2018-09-28T16:18:47.034Z,1.75
2018-09-28T16:21:16.120Z,2.00
2018-09-28T16:23:43.678Z,1.48
2018-09-28T16:26:14.137Z,2.00
2018-09-28T16:28:41.668Z,2.42
2018-09-28T16:31:09.026Z,1.60
2018-09-28T16:33:36.487Z,1.67
2018-09-28T16:36:03.576Z,1.65
2018-09-28T16:38:45.420Z,1.70
2018-09-28T16:41:15.402Z,2.20
2018-09-28T16:43:43.381Z,1.90
2018-09-28T16:46:11.253Z,2.20
2018-09-28T16:48:38.700Z,2.35
2018-09-28T16:51:06.813Z,2.40
2018-09-28T16:53:35.315Z,1.65
2018-09-28T16:56:02.853Z,2.10
2018-09-28T16:58:31.398Z,2.20
2018-09-28T17:01:01.353Z,2.00
2018-09-28T17:03:29.614Z,2.10
2018-09-28T17:09:05.231Z,2.08
2018-09-28T17:11:51.235Z,6.40
2018-09-28T17:14:19.333Z,4.37
2018-09-28T17:16:46.664Z,3.50
2018-09-28T17:19:15.690Z,5.55
2018-09-28T17:21:43.561Z,4.12
2018-09-28T17:24:11.249Z,9.15
2018-09-28T17:26:39.599Z,8.13
2018-09-28T17:29:08.012Z,4.70
2018-09-28T17:31:35.466Z,5.00
2018-09-28T17:34:02.792Z,4.47
2018-09-28T17:36:29.973Z,4.28
2018-09-28T17:38:57.335Z,3.95
2018-09-28T17:41:26.450Z,4.30
2018-09-28T17:43:53.480Z,3.58
2018-09-28T17:46:20.632Z,3.15
2018-09-28T17:48:48.050Z,2.97
2018-09-28T17:51:15.438Z,3.08
2018-09-28T17:53:43.175Z,2.60
2018-09-28T17:56:10.647Z,2.90
2018-09-28T17:58:37.981Z,3.05
2018-09-28T18:01:08.133Z,3.05
2018-09-28T18:03:35.392Z,3.40
2018-09-28T18:06:02.954Z,3.60
2018-09-28T18:08:30.308Z,3.70
2018-09-28T18:10:57.462Z,3.10
2018-09-28T18:13:27.572Z,2.92
2018-09-28T18:15:58.074Z,3.08
2018-09-28T18:18:36.989Z,3.28
2018-09-28T18:21:24.222Z,3.33
2018-09-28T18:24:13.112Z,4.00
2018-09-28T18:27:01.757Z,3.37
2018-09-28T18:29:50.590Z,2.70
2018-09-28T18:32:38.013Z,2.90
2018-09-28T18:35:05.392Z,2.85
2018-09-28T18:37:33.828Z,2.60
2018-09-28T18:40:03.677Z,2.72
2018-09-28T18:42:31.863Z,3.35
2018-09-28T18:45:16.365Z,2.97
2018-09-28T18:47:45.973Z,3.08
2018-09-28T18:50:14.437Z,2.62
2018-09-28T18:52:43.900Z,2.53
2018-09-28T18:55:12.594Z,2.60
2018-09-28T18:57:40.252Z,2.83
2018-09-28T19:00:09.254Z,2.12
2018-09-28T19:02:38.038Z,2.62
2018-09-28T19:05:06.328Z,3.00
2018-09-28T19:07:36.441Z,2.40
2018-09-28T19:10:05.854Z,2.62
2018-09-28T19:12:35.493Z,2.62
2018-09-28T19:15:03.849Z,2.55
2018-09-28T19:17:32.318Z,2.60
2018-09-28T19:20:00.393Z,2.20
2018-09-28T19:22:28.877Z,2.33
2018-09-28T19:24:58.367Z,2.47
2018-09-28T19:27:27.433Z,2.20
2018-09-28T19:29:56.073Z,2.10
2018-09-28T19:32:29.773Z,1.95
2018-09-28T19:34:56.948Z,2.00
2018-09-28T19:37:25.938Z,2.20
2018-09-28T19:39:53.201Z,2.40
2018-09-28T19:42:21.944Z,1.92
2018-09-28T19:44:51.219Z,2.10
2018-09-28T19:47:18.642Z,1.95
2018-09-28T19:49:47.297Z,2.20
2018-09-28T19:52:17.277Z,1.65
2018-09-28T19:54:46.014Z,1.85
2018-09-28T19:57:17.612Z,1.80
2018-09-28T19:59:46.179Z,1.87
2018-09-28T20:02:31.184Z,2.00
2018-09-28T20:05:23.006Z,2.00
2018-09-28T20:08:15.989Z,1.90
2018-09-28T20:11:09.117Z,1.90
2018-09-28T20:13:57.755Z,2.17
2018-09-28T20:16:25.102Z,2.17
2018-09-28T20:18:52.358Z,1.90
2018-09-28T20:21:19.681Z,2.15
2018-09-28T20:23:47.570Z,1.87
2018-09-28T20:26:14.664Z,2.67
2018-09-28T20:28:43.113Z,2.30
2018-09-28T20:31:10.362Z,2.22
2018-09-28T20:33:37.513Z,2.33
2018-09-28T20:36:04.971Z,2.05
2018-09-28T20:38:32.365Z,2.10
2018-09-28T20:40:59.484Z,2.00
2018-09-28T20:43:26.697Z,2.30
2018-09-28T20:45:54.803Z,2.00
2018-09-28T20:48:22.167Z,2.25
2018-09-28T20:50:49.209Z,2.10
2018-09-28T20:53:18.450Z,2.28
2018-09-28T20:55:45.769Z,2.78
2018-09-28T20:58:12.920Z,2.35
2018-09-28T21:00:39.962Z,2.28
2018-09-28T21:03:08.514Z,2.28
2018-09-28T21:05:36.725Z,2.42
2018-09-28T21:08:04.321Z,2.28
2018-09-28T21:10:31.503Z,2.30
2018-09-28T21:12:59.098Z,2.40
2018-09-28T21:15:26.147Z,2.80
2018-09-28T21:17:54.124Z,2.25
2018-09-28T21:20:21.473Z,2.60
2018-09-28T21:22:48.523Z,2.60
2018-09-28T21:25:15.673Z,2.70
2018-09-28T21:27:42.729Z,2.50
2018-09-28T21:30:09.771Z,2.58
2018-09-28T21:32:37.536Z,2.65
2018-09-28T21:35:04.892Z,2.53
2018-09-28T21:37:33.482Z,2.80
2018-09-28T21:40:00.731Z,2.70
2018-09-28T21:42:27.982Z,3.08
2018-09-28T21:44:55.440Z,3.05
2018-09-28T21:47:22.489Z,3.17
2018-09-28T21:49:49.543Z,3.33
2018-09-28T21:52:17.691Z,3.12
2018-09-28T21:54:44.866Z,3.03
2018-09-28T21:57:11.920Z,2.60
2018-09-28T21:59:39.169Z,2.95
2018-09-28T22:02:07.239Z,3.20
2018-09-28T22:04:34.442Z,3.00
2018-09-28T22:07:03.077Z,3.05
2018-09-28T22:09:30.136Z,3.08
2018-09-28T22:11:57.178Z,3.15
2018-09-28T22:14:24.742Z,3.10
2018-09-28T22:16:51.785Z,3.60
2018-09-28T22:19:18.838Z,3.20
2018-09-28T22:21:46.085Z,3.20
2018-09-28T22:24:13.135Z,3.22
2018-09-28T22:26:40.191Z,3.50
2018-09-28T22:29:07.231Z,3.17
2018-09-28T22:31:34.280Z,3.40
2018-09-28T22:34:01.336Z,3.53
2018-09-28T22:36:28.584Z,3.40
2018-09-28T22:38:55.592Z,3.50
2018-09-28T22:41:23.293Z,3.50
2018-09-28T22:43:50.396Z,3.70
2018-09-28T22:46:17.494Z,4.03
2018-09-28T22:48:44.556Z,3.53
2018-09-28T22:51:11.796Z,3.83
2018-09-28T22:53:38.848Z,3.73
2018-09-28T22:56:06.097Z,3.53
2018-09-28T22:58:33.150Z,3.87
2018-09-28T23:01:00.195Z,3.60
2018-09-28T23:03:27.962Z,3.40
2018-09-28T23:05:55.008Z,3.53
2018-09-28T23:08:22.062Z,3.77
2018-09-28T23:10:49.276Z,3.53
2018-09-28T23:13:16.256Z,3.80
2018-09-28T23:15:43.306Z,3.70
2018-09-28T23:18:10.560Z,3.40
2018-09-28T23:20:37.607Z,3.57
2018-09-28T23:23:06.705Z,3.40
2018-09-28T23:25:34.472Z,3.20
2018-09-28T23:28:01.519Z,3.10
2018-09-28T23:30:28.574Z,3.13
2018-09-28T23:32:56.030Z,3.30
2018-09-28T23:35:23.073Z,3.57
2018-09-28T23:37:50.125Z,3.07
2018-09-28T23:40:17.685Z,3.33
2018-09-28T23:42:44.731Z,3.67
2018-09-28T23:45:11.746Z,3.40
2018-09-28T23:47:39.594Z,3.67
2018-09-28T23:50:06.594Z,3.10
2018-09-28T23:52:33.641Z,3.27
2018-09-28T23:55:03.252Z,3.67
2018-09-28T23:57:30.305Z,3.43
2018-09-28T23:59:58.171Z,3.20
